24h
KLIENDITUGI:
Saartelennuliinid: +372 58856336 (24/7)
Estairi piletikassa lennujaamas:
+372 6058887; +372 55603687

02.04.2018 hommikune lend Tallinn-Kärdla-Tallinn on tühistatud. Reisijatele tagastatakse piletiraha. Lennu tühistamise põhjustas halb ilm Kärdla lennuväljal. Lisainformatsioon 58856336.

EEKA Kärdla lennuväli

FCEO32 EETN 020300 TAF EEKA 020300Z 0204/0210 01015G25KT 2000 SN BKN003 OVC010

TEMPO 0204/0209 1000 +SN BLSN VV002=

METAR EEKA 020250Z 03013KT 1800 SN OVC002 00/00 Q0994=
Kuupäev: 
02/04/2018